sensor_id;sensor_type;location;lat;lon;timestamp;temperature;humidity
64718;DHT22;62506;46.070;14.492;2023-09-08T00:00:56;25.10;55.40
64718;DHT22;62506;46.070;14.492;2023-09-08T00:16:38;25.10;55.90
64718;DHT22;62506;46.070;14.492;2023-09-08T00:19:45;25.20;55.20
64718;DHT22;62506;46.070;14.492;2023-09-08T00:42:57;25.20;54.90
64718;DHT22;62506;46.070;14.492;2023-09-08T00:45:24;25.10;55.00
64718;DHT22;62506;46.070;14.492;2023-09-08T18:25:49;25.20;54.70
64718;DHT22;62506;46.070;14.492;2023-09-08T18:28:31;25.10;54.70
64718;DHT22;62506;46.070;14.492;2023-09-08T18:31:32;25.10;54.80
64718;DHT22;62506;46.070;14.492;2023-09-08T18:34:21;25.10;55.10
64718;DHT22;62506;46.070;14.492;2023-09-08T18:37:28;25.10;55.10
64718;DHT22;62506;46.070;14.492;2023-09-08T18:58:39;25.10;55.40
64718;DHT22;62506;46.070;14.492;2023-09-08T19:14:09;25.10;55.60
64718;DHT22;62506;46.070;14.492;2023-09-08T19:20:31;25.10;55.40
64718;DHT22;62506;46.070;14.492;2023-09-08T19:44:40;25.30;55.60
64718;DHT22;62506;46.070;14.492;2023-09-08T20:38:02;25.20;55.60
64718;DHT22;62506;46.070;14.492;2023-09-08T20:40:58;25.20;55.80
64718;DHT22;62506;46.070;14.492;2023-09-08T20:43:56;25.20;55.70
64718;DHT22;62506;46.070;14.492;2023-09-08T20:46:47;25.10;55.80
64718;DHT22;62506;46.070;14.492;2023-09-08T20:49:42;25.10;56.20
64718;DHT22;62506;46.070;14.492;2023-09-08T20:52:20;25.10;56.60
64718;DHT22;62506;46.070;14.492;2023-09-08T20:55:34;25.00;56.60
64718;DHT22;62506;46.070;14.492;2023-09-08T20:58:21;25.00;56.40
64718;DHT22;62506;46.070;14.492;2023-09-08T21:00:57;25.00;56.50
64718;DHT22;62506;46.070;14.492;2023-09-08T21:04:10;24.90;56.50
64718;DHT22;62506;46.070;14.492;2023-09-08T21:06:59;24.90;56.50
64718;DHT22;62506;46.070;14.492;2023-09-08T21:09:47;24.90;56.60
64718;DHT22;62506;46.070;14.492;2023-09-08T21:12:34;24.80;56.60
64718;DHT22;62506;46.070;14.492;2023-09-08T21:15:31;24.90;56.60
64718;DHT22;62506;46.070;14.492;2023-09-08T21:18:05;24.80;56.60
64718;DHT22;62506;46.070;14.492;2023-09-08T21:20:34;24.80;56.60
64718;DHT22;62506;46.070;14.492;2023-09-08T21:23:28;24.80;56.70
64718;DHT22;62506;46.070;14.492;2023-09-08T21:26:22;24.80;56.70
64718;DHT22;62506;46.070;14.492;2023-09-08T21:29:18;24.80;56.70
64718;DHT22;62506;46.070;14.492;2023-09-08T21:31:46;24.80;56.70
64718;DHT22;62506;46.070;14.492;2023-09-08T21:34:45;24.80;56.70
64718;DHT22;62506;46.070;14.492;2023-09-08T21:37:48;24.80;56.70
64718;DHT22;62506;46.070;14.492;2023-09-08T21:40:44;24.80;56.70
64718;DHT22;62506;46.070;14.492;2023-09-08T21:43:35;24.80;56.80
64718;DHT22;62506;46.070;14.492;2023-09-08T21:46:26;24.70;56.70
64718;DHT22;62506;46.070;14.492;2023-09-08T21:49:21;24.70;56.70
64718;DHT22;62506;46.070;14.492;2023-09-08T21:52:21;24.70;56.80
64718;DHT22;62506;46.070;14.492;2023-09-08T21:55:31;24.70;56.80
64718;DHT22;62506;46.070;14.492;2023-09-08T21:58:26;24.70;56.80
64718;DHT22;62506;46.070;14.492;2023-09-08T22:01:05;24.70;56.80
64718;DHT22;62506;46.070;14.492;2023-09-08T22:04:01;24.70;56.80
64718;DHT22;62506;46.070;14.492;2023-09-08T22:06:57;24.70;56.70
64718;DHT22;62506;46.070;14.492;2023-09-08T22:10:05;24.70;56.70
64718;DHT22;62506;46.070;14.492;2023-09-08T22:12:56;24.70;56.70
64718;DHT22;62506;46.070;14.492;2023-09-08T22:15:45;24.70;56.80
64718;DHT22;62506;46.070;14.492;2023-09-08T22:18:14;24.70;56.80
64718;DHT22;62506;46.070;14.492;2023-09-08T22:21:07;24.70;56.70
64718;DHT22;62506;46.070;14.492;2023-09-08T22:23:53;24.70;56.80
64718;DHT22;62506;46.070;14.492;2023-09-08T22:26:48;24.70;56.80
64718;DHT22;62506;46.070;14.492;2023-09-08T22:29:21;24.70;56.70
64718;DHT22;62506;46.070;14.492;2023-09-08T22:32:23;24.70;56.70
64718;DHT22;62506;46.070;14.492;2023-09-08T22:35:10;24.70;56.70
64718;DHT22;62506;46.070;14.492;2023-09-08T22:37:49;24.70;56.80
64718;DHT22;62506;46.070;14.492;2023-09-08T22:40:58;24.70;56.80
64718;DHT22;62506;46.070;14.492;2023-09-08T22:47:11;24.70;56.90
64718;DHT22;62506;46.070;14.492;2023-09-08T22:50:16;24.70;56.70
64718;DHT22;62506;46.070;14.492;2023-09-08T22:53:30;24.70;56.80
64718;DHT22;62506;46.070;14.492;2023-09-08T22:56:43;24.70;56.70
64718;DHT22;62506;46.070;14.492;2023-09-08T22:59:39;24.70;56.70
64718;DHT22;62506;46.070;14.492;2023-09-08T23:02:29;24.70;56.90
64718;DHT22;62506;46.070;14.492;2023-09-08T23:05:17;24.70;56.80
64718;DHT22;62506;46.070;14.492;2023-09-08T23:07:51;24.70;56.70
64718;DHT22;62506;46.070;14.492;2023-09-08T23:10:21;24.70;56.80
64718;DHT22;62506;46.070;14.492;2023-09-08T23:12:53;24.70;56.80
64718;DHT22;62506;46.070;14.492;2023-09-08T23:16:06;24.70;56.80
64718;DHT22;62506;46.070;14.492;2023-09-08T23:19:08;24.70;56.80
64718;DHT22;62506;46.070;14.492;2023-09-08T23:22:14;24.70;56.80
64718;DHT22;62506;46.070;14.492;2023-09-08T23:25:07;24.70;56.70
64718;DHT22;62506;46.070;14.492;2023-09-08T23:28:00;24.70;56.80
64718;DHT22;62506;46.070;14.492;2023-09-08T23:30:55;24.70;56.80
64718;DHT22;62506;46.070;14.492;2023-09-08T23:33:39;24.70;56.90
64718;DHT22;62506;46.070;14.492;2023-09-08T23:36:19;24.70;56.70
64718;DHT22;62506;46.070;14.492;2023-09-08T23:39:30;24.70;56.80
64718;DHT22;62506;46.070;14.492;2023-09-08T23:45:30;24.70;56.70
64718;DHT22;62506;46.070;14.492;2023-09-08T23:48:21;24.70;56.90
64718;DHT22;62506;46.070;14.492;2023-09-08T23:50:59;24.70;56.80
64718;DHT22;62506;46.070;14.492;2023-09-08T23:53:47;24.70;56.80
64718;DHT22;62506;46.070;14.492;2023-09-08T23:56:43;24.70;56.80
64718;DHT22;62506;46.070;14.492;2023-09-08T23:59:46;24.60;56.70
